createdAt,value
2022-08-05T00:01:48.994Z,25.90
2022-08-05T00:04:16.833Z,25.90
2022-08-05T00:06:44.493Z,25.90
2022-08-05T00:09:15.967Z,25.90
2022-08-05T00:11:48.741Z,25.80
2022-08-05T00:14:17.513Z,25.80
2022-08-05T00:16:52.821Z,25.80
2022-08-05T00:19:22.328Z,25.80
2022-08-05T00:21:49.559Z,25.70
2022-08-05T00:24:24.102Z,25.70
2022-08-05T00:26:52.964Z,25.80
2022-08-05T00:29:22.788Z,25.80
2022-08-05T00:32:09.451Z,25.70
2022-08-05T00:34:53.952Z,25.60
2022-08-05T00:37:26.202Z,25.50
2022-08-05T00:39:57.844Z,25.50
2022-08-05T00:42:32.975Z,25.60
2022-08-05T00:45:00.243Z,25.50
2022-08-05T00:47:31.733Z,25.50
2022-08-05T00:50:13.931Z,25.40
2022-08-05T00:52:42.072Z,25.30
2022-08-05T00:55:13.844Z,25.40
2022-08-05T00:57:58.089Z,25.40
2022-08-05T01:00:26.317Z,25.40
2022-08-05T01:02:53.161Z,25.40
2022-08-05T01:05:19.973Z,25.40
2022-08-05T01:08:40.528Z,25.30
2022-08-05T01:10:41.513Z,25.30
2022-08-05T01:13:27.513Z,25.20
2022-08-05T01:16:15.833Z,25.10
2022-08-05T01:18:57.834Z,25.10
2022-08-05T01:22:01.007Z,25.20
2022-08-05T01:24:59.563Z,25.20
2022-08-05T01:27:57.931Z,25.20
2022-08-05T01:30:33.748Z,25.10
2022-08-05T01:33:08.423Z,25.10
2022-08-05T01:35:51.639Z,25.10
2022-08-05T01:38:26.917Z,25.00
2022-08-05T01:40:57.361Z,25.00
2022-08-05T01:43:25.776Z,25.00
2022-08-05T01:45:56.762Z,25.00
2022-08-05T01:48:24.841Z,25.00
2022-08-05T01:50:53.701Z,25.00
2022-08-05T01:53:55.151Z,25.00
2022-08-05T01:56:11.730Z,24.90
2022-08-05T01:58:45.183Z,24.90
2022-08-05T02:01:23.265Z,24.80
2022-08-05T02:03:55.465Z,24.70
2022-08-05T02:06:37.637Z,24.70
2022-08-05T02:09:06.037Z,24.60
2022-08-05T02:11:42.249Z,24.70
2022-08-05T02:14:12.728Z,24.80
2022-08-05T02:16:46.482Z,24.70
2022-08-05T02:19:25.278Z,24.70
2022-08-05T02:21:59.208Z,24.70
2022-08-05T02:24:32.359Z,24.50
2022-08-05T02:27:18.748Z,24.50
2022-08-05T02:29:59.772Z,24.60
2022-08-05T02:32:31.511Z,24.60
2022-08-05T02:35:02.169Z,24.60
2022-08-05T02:37:41.530Z,24.50
2022-08-05T02:40:10.544Z,24.50
2022-08-05T02:42:39.537Z,24.50
2022-08-05T02:45:09.108Z,24.50
2022-08-05T02:48:07.113Z,24.50
2022-08-05T02:50:30.616Z,24.40
2022-08-05T02:52:58.473Z,24.40
2022-08-05T02:55:52.002Z,24.40
2022-08-05T02:58:15.244Z,24.40
2022-08-05T03:00:46.044Z,24.20
2022-08-05T03:03:16.605Z,24.20
2022-08-05T03:06:55.330Z,24.20
2022-08-05T03:08:31.585Z,24.10
2022-08-05T03:11:45.932Z,24.10
2022-08-05T03:13:52.059Z,24.20
2022-08-05T03:16:29.959Z,24.20
2022-08-05T03:19:12.507Z,24.20
2022-08-05T03:21:41.710Z,24.20
2022-08-05T03:24:16.833Z,24.20
2022-08-05T03:26:43.642Z,24.20
2022-08-05T03:29:17.358Z,24.20
2022-08-05T03:31:56.771Z,24.20
2022-08-05T03:34:28.960Z,24.20
2022-08-05T03:36:55.817Z,24.10
2022-08-05T03:39:27.061Z,24.00
2022-08-05T03:41:56.147Z,24.00
2022-08-05T03:44:23.521Z,24.00
2022-08-05T03:46:50.411Z,23.90
2022-08-05T03:49:17.487Z,23.90
2022-08-05T03:52:38.455Z,23.80
2022-08-05T03:55:34.481Z,23.80
2022-08-05T03:57:42.645Z,23.80
2022-08-05T04:00:15.653Z,23.80
2022-08-05T04:02:51.996Z,23.80
2022-08-05T04:05:25.827Z,23.70
2022-08-05T04:07:58.584Z,23.60
2022-08-05T04:10:27.458Z,23.60
2022-08-05T04:12:55.227Z,23.50
2022-08-05T04:15:24.531Z,23.50
2022-08-05T04:17:56.151Z,23.50
2022-08-05T04:20:24.515Z,23.50
2022-08-05T04:22:51.303Z,23.50
2022-08-05T04:25:19.948Z,23.50
2022-08-05T04:28:11.314Z,23.40
2022-08-05T04:30:39.743Z,23.50
2022-08-05T04:33:06.513Z,23.50
2022-08-05T04:36:09.438Z,23.50
2022-08-05T04:38:21.217Z,23.50
2022-08-05T04:40:50.720Z,23.50
2022-08-05T04:43:17.901Z,23.50
2022-08-05T04:45:54.891Z,23.50
2022-08-05T04:48:27.862Z,23.40
2022-08-05T04:51:03.365Z,23.50
2022-08-05T04:53:38.635Z,23.50
2022-08-05T04:56:33.447Z,23.50
2022-08-05T04:58:54.712Z,23.60
2022-08-05T05:02:05.470Z,23.60
2022-08-05T05:04:08.307Z,23.60
2022-08-05T05:06:40.899Z,23.60
2022-08-05T05:09:14.145Z,23.60
2022-08-05T05:11:54.633Z,23.60
2022-08-05T05:14:31.637Z,23.70
2022-08-05T05:16:59.326Z,23.70
2022-08-05T05:19:27.352Z,23.80
2022-08-05T05:22:06.250Z,23.90
2022-08-05T05:24:58.006Z,23.90
2022-08-05T05:27:45.819Z,24.00
2022-08-05T05:30:29.866Z,24.10
2022-08-05T05:33:03.492Z,24.10
2022-08-05T05:35:39.619Z,24.10
2022-08-05T05:38:13.156Z,24.20
2022-08-05T05:40:47.968Z,24.20
2022-08-05T05:43:22.394Z,24.20
2022-08-05T05:46:10.692Z,24.30
2022-08-05T05:48:43.985Z,24.30
2022-08-05T05:51:15.732Z,24.40
2022-08-05T05:53:45.911Z,24.40
2022-08-05T05:56:31.815Z,24.40
2022-08-05T05:59:03.260Z,24.50
2022-08-05T06:01:36.891Z,24.60
2022-08-05T06:04:06.199Z,24.60
2022-08-05T06:06:34.773Z,24.70
2022-08-05T06:09:03.243Z,24.70
2022-08-05T06:11:30.947Z,24.80
2022-08-05T06:13:57.742Z,24.80
2022-08-05T06:16:36.824Z,24.90
2022-08-05T06:19:05.970Z,24.90
2022-08-05T06:21:36.159Z,24.90
2022-08-05T06:24:05.998Z,25.00
2022-08-05T06:26:35.141Z,25.00
2022-08-05T06:29:23.684Z,25.00
2022-08-05T06:31:51.847Z,25.00
2022-08-05T06:34:20.133Z,25.00
2022-08-05T06:36:58.231Z,25.00
2022-08-05T06:39:27.681Z,25.10
2022-08-05T06:41:55.802Z,25.10
2022-08-05T06:44:24.399Z,25.20
2022-08-05T06:46:54.549Z,25.30
2022-08-05T06:50:00.406Z,25.30
2022-08-05T06:52:08.053Z,25.30
2022-08-05T06:54:54.771Z,25.40
2022-08-05T06:58:02.881Z,25.40
2022-08-05T07:00:09.674Z,25.50
2022-08-05T07:02:43.317Z,25.50
2022-08-05T07:05:14.254Z,25.50
2022-08-05T07:07:45.313Z,25.60
2022-08-05T07:10:14.920Z,25.60
2022-08-05T07:12:43.617Z,25.70
2022-08-05T07:15:34.188Z,25.70
2022-08-05T07:18:08.651Z,25.70
2022-08-05T07:20:37.108Z,25.70
2022-08-05T07:23:06.499Z,25.70
2022-08-05T07:25:55.961Z,25.70
2022-08-05T07:28:20.131Z,25.80
2022-08-05T07:30:52.769Z,25.80
2022-08-05T07:33:36.464Z,25.80
2022-08-05T07:36:21.178Z,25.80
2022-08-05T07:38:49.164Z,25.90
2022-08-05T07:42:12.920Z,25.90
2022-08-05T07:44:18.685Z,25.90
2022-08-05T07:46:49.185Z,25.90
2022-08-05T07:49:18.827Z,26.00
2022-08-05T07:51:53.490Z,26.00
2022-08-05T07:54:23.333Z,26.00
2022-08-05T07:57:01.306Z,26.10
2022-08-05T07:59:41.078Z,26.10
2022-08-05T08:02:15.395Z,26.10
2022-08-05T08:04:45.869Z,26.10
2022-08-05T08:07:12.994Z,26.10
2022-08-05T08:09:39.830Z,26.20
2022-08-05T08:12:18.523Z,26.20
2022-08-05T08:14:53.844Z,26.20
2022-08-05T08:17:21.882Z,26.20
2022-08-05T08:20:43.013Z,26.30
2022-08-05T08:22:37.010Z,26.30
2022-08-05T08:25:16.402Z,26.30
2022-08-05T08:27:44.921Z,26.30
2022-08-05T08:30:20.295Z,26.30
2022-08-05T08:33:04.324Z,26.30
2022-08-05T08:35:34.863Z,26.40
2022-08-05T08:38:07.558Z,26.40
2022-08-05T08:40:35.118Z,26.50
2022-08-05T08:43:03.527Z,26.50
2022-08-05T08:45:51.939Z,26.50
2022-08-05T08:48:41.411Z,26.50
2022-08-05T08:51:30.664Z,26.60
2022-08-05T08:53:55.925Z,26.70
2022-08-05T08:56:22.737Z,27.10
2022-08-05T08:58:54.201Z,26.90
2022-08-05T09:01:21.141Z,26.90
2022-08-05T09:03:54.208Z,27.00
2022-08-05T09:06:29.478Z,27.00
2022-08-05T09:08:57.709Z,27.10
2022-08-05T09:11:53.354Z,27.20
2022-08-05T09:14:58.725Z,27.20
2022-08-05T09:16:59.235Z,27.20
2022-08-05T09:19:28.029Z,27.20
2022-08-05T09:22:22.258Z,27.20
2022-08-05T09:25:01.553Z,27.10
2022-08-05T09:28:04.775Z,27.10
2022-08-05T09:30:23.467Z,27.10
2022-08-05T09:32:51.586Z,27.10
2022-08-05T09:35:26.747Z,27.10
2022-08-05T09:38:17.915Z,27.10
2022-08-05T09:40:44.507Z,27.10
2022-08-05T09:43:40.487Z,27.10
2022-08-05T09:46:28.057Z,27.40
2022-08-05T09:49:08.024Z,27.30
2022-08-05T09:51:42.761Z,27.30
2022-08-05T09:54:11.269Z,27.30
2022-08-05T09:56:38.878Z,27.20
2022-08-05T09:59:07.156Z,27.30
2022-08-05T10:01:35.706Z,27.50
2022-08-05T10:04:10.027Z,27.40
2022-08-05T10:06:38.077Z,27.40
2022-08-05T10:09:27.477Z,27.60
2022-08-05T10:12:31.402Z,27.70
2022-08-05T10:14:54.447Z,27.60
2022-08-05T10:17:37.680Z,27.50
2022-08-05T10:20:09.779Z,27.50
2022-08-05T10:22:38.916Z,27.50
2022-08-05T10:25:14.468Z,27.60
2022-08-05T10:28:09.662Z,27.60
2022-08-05T10:32:47.266Z,27.60
2022-08-05T10:33:15.597Z,27.60
2022-08-05T10:35:44.276Z,27.60
2022-08-05T10:38:13.049Z,27.60
2022-08-05T10:40:46.907Z,27.60
2022-08-05T10:43:35.542Z,27.60
2022-08-05T10:46:06.476Z,27.70
2022-08-05T10:48:39.592Z,27.70
2022-08-05T10:51:23.033Z,27.70
2022-08-05T10:53:58.466Z,27.70
2022-08-05T10:56:36.398Z,27.80
2022-08-05T10:59:07.252Z,27.80
2022-08-05T11:01:54.948Z,27.80
2022-08-05T11:04:30.923Z,27.80
2022-08-05T11:07:06.917Z,27.90
2022-08-05T11:09:46.230Z,28.00
2022-08-05T11:12:50.458Z,27.90
2022-08-05T11:15:23.203Z,27.90
2022-08-05T11:17:57.499Z,27.90
2022-08-05T11:20:41.556Z,28.00
2022-08-05T11:23:33.372Z,28.00
2022-08-05T11:26:09.074Z,28.00
2022-08-05T11:28:43.002Z,28.00
2022-08-05T11:31:58.122Z,28.00
2022-08-05T11:34:36.575Z,28.00
2022-08-05T11:37:06.171Z,28.10
2022-08-05T11:40:00.798Z,28.10
2022-08-05T11:42:32.265Z,28.10
2022-08-05T11:45:05.415Z,28.20
2022-08-05T11:47:49.533Z,28.10
2022-08-05T11:50:17.123Z,28.20
2022-08-05T11:52:46.111Z,28.20
2022-08-05T11:55:15.722Z,28.20
2022-08-05T11:58:09.444Z,28.30
2022-08-05T12:00:38.615Z,28.30
2022-08-05T12:03:16.660Z,28.30
2022-08-05T12:05:59.256Z,28.30
2022-08-05T12:08:26.773Z,28.40
2022-08-05T12:10:55.726Z,28.40
2022-08-05T12:13:47.547Z,28.40
2022-08-05T12:16:18.867Z,28.40
2022-08-05T12:18:52.380Z,28.50
2022-08-05T12:21:21.566Z,28.50
2022-08-05T12:24:03.306Z,28.50
2022-08-05T12:26:32.832Z,28.50
2022-08-05T12:28:59.979Z,28.50
2022-08-05T12:31:33.487Z,28.50
2022-08-05T12:34:14.713Z,28.50
2022-08-05T12:36:48.384Z,28.50
2022-08-05T12:39:15.304Z,28.50
2022-08-05T12:41:43.891Z,28.60
2022-08-05T12:44:14.310Z,28.60
2022-08-05T12:46:51.413Z,28.60
2022-08-05T12:49:19.132Z,28.60
2022-08-05T12:52:10.511Z,28.60
2022-08-05T12:54:35.984Z,28.70
2022-08-05T12:57:09.466Z,28.70
2022-08-05T12:59:46.984Z,28.70
2022-08-05T13:02:36.280Z,28.70
2022-08-05T13:05:06.830Z,28.70
2022-08-05T13:07:59.751Z,28.80
2022-08-05T13:10:20.605Z,28.80
2022-08-05T13:12:51.284Z,28.80
2022-08-05T13:15:42.076Z,28.80
2022-08-05T13:18:19.913Z,28.80
2022-08-05T13:20:47.316Z,28.90
2022-08-05T13:23:16.352Z,28.90
2022-08-05T13:25:52.817Z,28.90
2022-08-05T13:28:26.742Z,28.90
2022-08-05T13:30:53.751Z,28.90
2022-08-05T13:34:21.464Z,28.90
2022-08-05T13:36:09.197Z,28.90
2022-08-05T13:38:42.370Z,28.90
2022-08-05T13:41:10.065Z,29.00
2022-08-05T13:43:44.988Z,29.00
2022-08-05T13:46:44.238Z,29.00
2022-08-05T13:49:10.406Z,28.90
2022-08-05T13:51:40.931Z,29.00
2022-08-05T13:54:12.772Z,29.00
2022-08-05T13:56:50.370Z,29.00
2022-08-05T13:59:20.391Z,29.10
2022-08-05T14:01:56.456Z,29.10
2022-08-05T14:04:27.906Z,29.10
2022-08-05T14:07:12.010Z,29.10
2022-08-05T14:09:43.045Z,29.10
2022-08-05T14:12:17.766Z,29.20
2022-08-05T14:14:45.359Z,29.20
2022-08-05T14:17:16.866Z,29.20
2022-08-05T14:20:00.946Z,29.20
2022-08-05T14:22:34.411Z,29.20
2022-08-05T14:25:01.458Z,29.20
2022-08-05T14:27:28.481Z,29.20
2022-08-05T14:29:56.329Z,29.30
2022-08-05T14:32:27.760Z,29.30
2022-08-05T14:34:56.854Z,29.30
2022-08-05T14:37:47.347Z,29.40
2022-08-05T14:40:14.276Z,29.30
2022-08-05T14:42:44.119Z,29.40
2022-08-05T14:45:11.289Z,29.40
2022-08-05T14:48:02.632Z,29.40
2022-08-05T14:50:26.112Z,29.40
2022-08-05T14:52:57.514Z,29.50
2022-08-05T14:55:25.903Z,29.50
2022-08-05T14:58:11.595Z,29.50
2022-08-05T15:00:39.497Z,29.50
2022-08-05T15:03:25.745Z,29.50
2022-08-05T15:06:13.188Z,29.60
2022-08-05T15:08:59.009Z,29.60
2022-08-05T15:11:51.292Z,29.60
2022-08-05T15:14:33.334Z,29.60
2022-08-05T15:17:01.509Z,29.60
2022-08-05T15:19:30.758Z,29.60
2022-08-05T15:22:00.211Z,29.70
2022-08-05T15:24:27.797Z,29.70
2022-08-05T15:26:56.041Z,29.70
2022-08-05T15:29:24.033Z,29.70
2022-08-05T15:31:57.258Z,29.70
2022-08-05T15:34:32.149Z,29.70
2022-08-05T15:37:06.233Z,29.70
2022-08-05T15:41:01.110Z,29.80
2022-08-05T15:42:49.927Z,29.80
2022-08-05T15:45:09.726Z,29.80
2022-08-05T15:47:36.839Z,29.90
2022-08-05T15:50:07.400Z,30.00
2022-08-05T15:52:54.408Z,30.10
2022-08-05T15:55:25.055Z,30.00
2022-08-05T15:58:16.773Z,30.00
2022-08-05T16:00:50.625Z,30.00
2022-08-05T16:03:32.817Z,30.10
2022-08-05T16:06:00.937Z,30.00
2022-08-05T16:08:31.019Z,30.00
2022-08-05T16:10:57.926Z,30.00
2022-08-05T16:13:34.486Z,30.00
2022-08-05T16:16:01.957Z,30.00
2022-08-05T16:18:30.436Z,30.00
2022-08-05T16:20:57.738Z,30.00
2022-08-05T16:23:24.483Z,30.00
2022-08-05T16:26:03.943Z,30.00
2022-08-05T16:28:30.762Z,30.00
2022-08-05T16:30:57.581Z,30.00
2022-08-05T16:33:24.340Z,29.90
2022-08-05T16:35:54.165Z,29.90
2022-08-05T16:38:25.248Z,29.90
2022-08-05T16:41:00.019Z,30.00
2022-08-05T16:43:30.584Z,30.00
2022-08-05T16:46:05.930Z,29.90
2022-08-05T16:48:39.743Z,29.90
2022-08-05T16:51:09.330Z,29.90
2022-08-05T16:54:04.738Z,29.90
2022-08-05T16:56:25.595Z,29.80
2022-08-05T16:58:52.403Z,29.80
2022-08-05T17:01:19.318Z,29.80
2022-08-05T17:03:46.464Z,29.80
2022-08-05T17:06:13.508Z,29.80
2022-08-05T17:08:53.286Z,29.80
2022-08-05T17:11:23.940Z,29.90
2022-08-05T17:14:00.230Z,30.00
2022-08-05T17:16:36.376Z,29.90
2022-08-05T17:19:07.034Z,30.00
2022-08-05T17:21:36.322Z,29.90
2022-08-05T17:24:14.287Z,30.10
2022-08-05T17:26:51.463Z,30.00
2022-08-05T17:29:22.373Z,30.00
2022-08-05T17:31:59.811Z,29.90
2022-08-05T17:34:29.546Z,29.80
2022-08-05T17:36:59.033Z,29.70
2022-08-05T17:39:34.021Z,29.70
2022-08-05T17:42:17.325Z,29.70
2022-08-05T17:44:50.842Z,29.70
2022-08-05T17:47:18.251Z,29.70
2022-08-05T17:50:00.069Z,29.70
2022-08-05T17:52:31.708Z,29.90
2022-08-05T17:54:58.681Z,29.80
2022-08-05T17:57:25.464Z,29.80
2022-08-05T18:00:05.149Z,29.70
2022-08-05T18:02:32.609Z,29.70
2022-08-05T18:04:59.459Z,29.60
2022-08-05T18:07:40.887Z,29.70
2022-08-05T18:10:10.749Z,29.70
2022-08-05T18:12:38.447Z,29.60
2022-08-05T18:15:08.878Z,29.60
2022-08-05T18:17:58.856Z,29.60
2022-08-05T18:20:29.646Z,29.50
2022-08-05T18:23:00.654Z,29.50
2022-08-05T18:25:38.953Z,29.50
2022-08-05T18:28:06.213Z,29.50
2022-08-05T18:30:34.771Z,29.50
2022-08-05T18:33:01.988Z,29.40
2022-08-05T18:36:00.670Z,29.40
2022-08-05T18:38:19.115Z,29.40
2022-08-05T18:41:53.374Z,29.40
2022-08-05T18:43:42.709Z,29.40
2022-08-05T18:46:11.006Z,29.40
2022-08-05T18:48:41.801Z,29.40
2022-08-05T18:52:06.302Z,29.30
2022-08-05T18:53:55.956Z,29.30
2022-08-05T18:56:25.154Z,29.30
2022-08-05T18:58:54.773Z,29.20
2022-08-05T19:01:47.230Z,29.20
2022-08-05T19:04:12.280Z,29.30
2022-08-05T19:06:45.460Z,29.20
2022-08-05T19:09:12.427Z,29.20
2022-08-05T19:12:00.310Z,29.20
2022-08-05T19:14:44.922Z,29.20
2022-08-05T19:17:14.398Z,29.20
2022-08-05T19:19:46.317Z,29.10
2022-08-05T19:22:17.123Z,29.10
2022-08-05T19:24:54.563Z,29.20
2022-08-05T19:27:23.426Z,29.20
2022-08-05T19:29:50.375Z,29.20
2022-08-05T19:32:18.994Z,29.10
2022-08-05T19:34:55.034Z,29.00
2022-08-05T19:37:22.561Z,28.70
2022-08-05T19:40:02.607Z,28.30
2022-08-05T19:42:36.412Z,28.00
2022-08-05T19:45:06.836Z,27.90
2022-08-05T19:47:37.465Z,27.80
2022-08-05T19:50:07.632Z,27.70
2022-08-05T19:52:37.154Z,27.70
2022-08-05T19:55:07.209Z,27.60
2022-08-05T19:57:49.130Z,27.60
2022-08-05T20:00:22.507Z,27.60
2022-08-05T20:02:50.571Z,27.50
2022-08-05T20:05:24.775Z,27.40
2022-08-05T20:07:56.319Z,27.40
2022-08-05T20:10:25.921Z,27.40
2022-08-05T20:12:52.891Z,27.40
2022-08-05T20:15:47.775Z,27.30
2022-08-05T20:18:10.819Z,27.30
2022-08-05T20:20:56.844Z,27.20
2022-08-05T20:23:40.409Z,27.20
2022-08-05T20:26:16.557Z,27.10
2022-08-05T20:28:45.016Z,27.10
2022-08-05T20:31:11.848Z,27.10
2022-08-05T20:33:42.193Z,27.10
2022-08-05T20:36:10.238Z,27.00
2022-08-05T20:38:38.110Z,27.00
2022-08-05T20:41:08.431Z,27.00
2022-08-05T20:43:58.611Z,26.90
2022-08-05T20:46:24.968Z,26.90
2022-08-05T20:48:53.583Z,26.90
2022-08-05T20:51:21.590Z,26.90
2022-08-05T20:53:56.726Z,26.90
2022-08-05T20:56:31.879Z,26.90
2022-08-05T20:59:13.891Z,26.80
2022-08-05T21:01:42.687Z,26.80
2022-08-05T21:04:11.512Z,26.70
2022-08-05T21:06:45.832Z,26.80
2022-08-05T21:09:14.302Z,26.70
2022-08-05T21:12:06.952Z,26.70
2022-08-05T21:14:28.543Z,26.60
2022-08-05T21:17:02.916Z,26.60
2022-08-05T21:19:47.311Z,26.70
2022-08-05T21:22:15.288Z,26.70
2022-08-05T21:24:45.272Z,26.60
2022-08-05T21:27:16.007Z,26.60
2022-08-05T21:29:43.418Z,26.60
2022-08-05T21:32:19.770Z,26.60
2022-08-05T21:35:08.497Z,26.60
2022-08-05T21:37:35.143Z,26.60
2022-08-05T21:40:13.039Z,26.60
2022-08-05T21:42:44.036Z,26.50
2022-08-05T21:45:11.980Z,26.50
2022-08-05T21:47:56.594Z,26.50
2022-08-05T21:50:26.204Z,26.50
2022-08-05T21:52:53.136Z,26.50
2022-08-05T21:56:01.644Z,26.40
2022-08-05T21:58:06.824Z,26.40
2022-08-05T22:00:37.283Z,26.30
2022-08-05T22:03:04.105Z,26.30
2022-08-05T22:05:48.733Z,26.40
2022-08-05T22:08:22.430Z,26.40
2022-08-05T22:10:51.466Z,26.30
2022-08-05T22:14:06.489Z,26.30
2022-08-05T22:16:20.407Z,26.20
2022-08-05T22:18:53.810Z,26.30
2022-08-05T22:21:26.786Z,26.30
2022-08-05T22:24:02.922Z,26.20
2022-08-05T22:26:35.691Z,26.20
2022-08-05T22:29:02.621Z,26.20
2022-08-05T22:31:30.802Z,26.20
2022-08-05T22:34:12.921Z,26.10
2022-08-05T22:36:53.653Z,26.20
2022-08-05T22:39:21.595Z,26.10
2022-08-05T22:42:10.115Z,26.10
2022-08-05T22:44:35.350Z,26.10
2022-08-05T22:47:05.779Z,26.00
2022-08-05T22:50:19.393Z,26.00
2022-08-05T22:52:22.947Z,26.00
2022-08-05T22:54:59.865Z,26.00
2022-08-05T22:57:26.837Z,25.90
2022-08-05T23:00:01.305Z,26.00
2022-08-05T23:02:30.246Z,26.00
2022-08-05T23:04:57.909Z,26.00
2022-08-05T23:07:30.430Z,26.00
2022-08-05T23:10:02.017Z,25.90
2022-08-05T23:12:29.672Z,25.90
2022-08-05T23:15:03.015Z,25.90
2022-08-05T23:17:34.405Z,25.80
2022-08-05T23:20:10.511Z,25.90
2022-08-05T23:22:47.681Z,25.80
2022-08-05T23:25:17.392Z,25.80
2022-08-05T23:28:02.706Z,25.80
2022-08-05T23:30:31.346Z,25.80
2022-08-05T23:32:58.202Z,25.80
2022-08-05T23:35:28.544Z,25.80
2022-08-05T23:38:02.603Z,25.80
2022-08-05T23:40:31.272Z,25.70
2022-08-05T23:42:58.020Z,25.70
2022-08-05T23:45:25.627Z,25.70
2022-08-05T23:47:53.672Z,25.60
2022-08-05T23:50:20.816Z,25.50
2022-08-05T23:52:49.733Z,25.50
2022-08-05T23:55:18.815Z,25.50
2022-08-05T23:57:48.944Z,25.50
